createdAt,value
2019-02-12T00:00:34.044Z,40.49
2019-02-12T00:03:00.215Z,42.24
2019-02-12T00:05:26.371Z,46.15
2019-02-12T00:07:52.680Z,48.54
2019-02-12T00:10:18.838Z,48.61
2019-02-12T00:12:45.122Z,50.04
2019-02-12T00:15:11.430Z,50.72
2019-02-12T00:17:37.690Z,50.77
2019-02-12T00:20:05.308Z,49.81
2019-02-12T00:22:31.506Z,49.39
2019-02-12T00:24:57.825Z,49.07
2019-02-12T00:27:24.101Z,47.44
2019-02-12T00:29:50.291Z,48.59
2019-02-12T00:32:16.559Z,47.43
2019-02-12T00:34:43.046Z,48.17
2019-02-12T00:37:09.348Z,46.28
2019-02-12T00:39:35.618Z,48.08
2019-02-12T00:42:01.768Z,47.28
2019-02-12T00:44:27.951Z,47.69
2019-02-12T00:46:54.219Z,46.98
2019-02-12T00:49:20.489Z,46.31
2019-02-12T00:51:46.682Z,44.83
2019-02-12T00:54:12.833Z,42.94
2019-02-12T00:56:38.999Z,40.81
2019-02-12T00:59:05.292Z,41.66
2019-02-12T01:01:31.572Z,42.64
2019-02-12T01:03:57.845Z,42.18
2019-02-12T01:06:24.165Z,41.47
2019-02-12T01:08:50.410Z,40.49
2019-02-12T01:11:16.667Z,41.71
2019-02-12T01:13:43.072Z,42.04
2019-02-12T01:16:09.235Z,45.51
2019-02-12T01:18:35.388Z,47.57
2019-02-12T01:21:01.795Z,47.87
2019-02-12T01:23:27.948Z,50.25
2019-02-12T01:25:54.224Z,51.72
2019-02-12T01:28:20.409Z,52.54
2019-02-12T01:30:46.582Z,51.08
2019-02-12T01:33:12.841Z,50.80
2019-02-12T01:35:39.044Z,50.55
2019-02-12T01:38:05.312Z,51.09
2019-02-12T01:40:31.468Z,49.97
2019-02-12T01:42:57.659Z,50.96
2019-02-12T01:45:23.824Z,50.29
2019-02-12T01:47:49.982Z,49.91
2019-02-12T01:50:16.170Z,49.37
2019-02-12T01:52:42.388Z,50.02
2019-02-12T01:55:08.627Z,49.26
2019-02-12T01:57:34.938Z,49.66
2019-02-12T02:00:01.118Z,48.64
2019-02-12T02:02:27.258Z,49.75
2019-02-12T02:04:53.455Z,52.58
2019-02-12T02:07:19.608Z,53.74
2019-02-12T02:09:46.072Z,53.93
2019-02-12T02:12:12.258Z,53.90
2019-02-12T02:14:38.427Z,54.49
2019-02-12T02:17:04.582Z,54.73
2019-02-12T02:19:30.779Z,54.18
2019-02-12T02:21:57.098Z,54.92
2019-02-12T02:24:23.247Z,54.55
2019-02-12T02:26:49.465Z,55.17
2019-02-12T02:29:15.592Z,56.18
2019-02-12T02:31:41.748Z,55.94
2019-02-12T02:34:07.943Z,55.24
2019-02-12T02:36:34.091Z,54.72
2019-02-12T02:39:00.251Z,53.96
2019-02-12T02:41:26.444Z,53.54
2019-02-12T02:43:52.602Z,54.36
2019-02-12T02:46:18.763Z,52.32
2019-02-12T02:48:45.052Z,54.47
2019-02-12T02:51:11.268Z,54.63
2019-02-12T02:53:37.476Z,53.97
2019-02-12T02:56:03.683Z,54.18
2019-02-12T02:58:29.812Z,52.10
2019-02-12T03:00:55.973Z,52.30
2019-02-12T03:03:22.264Z,50.71
2019-02-12T03:05:48.415Z,50.45
2019-02-12T03:08:14.573Z,50.49
2019-02-12T03:10:40.867Z,50.32
2019-02-12T03:13:07.013Z,50.66
2019-02-12T03:15:33.174Z,50.73
2019-02-12T03:17:59.363Z,50.22
2019-02-12T03:20:25.640Z,48.14
2019-02-12T03:22:51.951Z,47.62
2019-02-12T03:25:18.150Z,47.54
2019-02-12T03:27:44.312Z,46.81
2019-02-12T03:30:11.082Z,46.64
2019-02-12T03:32:37.291Z,46.37
2019-02-12T03:35:05.039Z,45.49
2019-02-12T03:37:31.199Z,47.63
2019-02-12T03:39:57.458Z,45.90
2019-02-12T03:42:23.738Z,45.91
2019-02-12T03:44:50.000Z,45.21
2019-02-12T03:47:16.283Z,45.72
2019-02-12T03:49:42.442Z,45.39
2019-02-12T03:52:12.825Z,44.93
2019-02-12T03:54:36.704Z,44.52
2019-02-12T03:57:03.167Z,43.85
2019-02-12T03:59:29.326Z,44.65
2019-02-12T04:01:55.612Z,44.92
2019-02-12T04:04:21.791Z,43.57
2019-02-12T04:06:47.957Z,43.67
2019-02-12T04:09:14.254Z,42.82
2019-02-12T04:11:40.412Z,42.74
2019-02-12T04:14:06.574Z,42.63
2019-02-12T04:16:32.778Z,42.45
2019-02-12T04:18:58.936Z,42.04
2019-02-12T04:21:25.092Z,42.39
2019-02-12T04:23:51.390Z,42.82
2019-02-12T04:26:17.560Z,42.68
2019-02-12T04:28:43.840Z,41.79
2019-02-12T04:31:10.029Z,42.36
2019-02-12T04:33:36.178Z,42.60
2019-02-12T04:36:02.438Z,41.79
2019-02-12T04:38:28.728Z,41.64
2019-02-12T04:40:54.890Z,42.46
2019-02-12T04:43:21.042Z,42.29
2019-02-12T04:45:47.535Z,41.95
2019-02-12T04:48:13.671Z,42.55
2019-02-12T04:50:39.835Z,41.80
2019-02-12T04:53:06.132Z,42.40
2019-02-12T04:55:32.292Z,42.15
2019-02-12T04:57:58.454Z,41.50
2019-02-12T05:00:24.801Z,41.14
2019-02-12T05:02:51.122Z,40.72
2019-02-12T05:05:17.388Z,40.74
2019-02-12T05:07:43.582Z,40.71
2019-02-12T05:10:16.440Z,40.90
2019-02-12T05:12:42.609Z,41.06
2019-02-12T05:15:09.090Z,41.05
2019-02-12T05:17:35.360Z,41.41
2019-02-12T05:20:01.547Z,41.50
2019-02-12T05:22:27.847Z,42.14
2019-02-12T05:24:54.055Z,41.62
2019-02-12T05:27:20.318Z,41.58
2019-02-12T05:29:46.613Z,41.21
2019-02-12T05:32:12.774Z,42.18
2019-02-12T05:34:39.026Z,43.13
2019-02-12T05:37:05.216Z,43.51
2019-02-12T05:39:31.369Z,43.96
2019-02-12T05:41:57.631Z,45.14
2019-02-12T05:44:23.860Z,45.25
2019-02-12T05:46:50.124Z,44.84
2019-02-12T05:49:16.296Z,45.04
2019-02-12T05:51:42.470Z,45.35
2019-02-12T05:54:08.736Z,44.05
2019-02-12T05:56:34.901Z,43.94
2019-02-12T05:59:01.165Z,44.31
2019-02-12T06:01:27.365Z,44.19
2019-02-12T06:03:53.632Z,44.76
2019-02-12T06:06:19.836Z,45.77
2019-02-12T06:08:46.003Z,45.43
2019-02-12T06:11:12.270Z,45.24
2019-02-12T06:13:38.579Z,45.54
2019-02-12T06:16:04.739Z,45.65
2019-02-12T06:18:30.999Z,44.96
2019-02-12T06:20:57.315Z,46.85
2019-02-12T06:23:23.548Z,45.57
2019-02-12T06:25:49.705Z,44.79
2019-02-12T06:28:16.002Z,43.85
2019-02-12T06:30:43.960Z,45.08
2019-02-12T06:33:10.341Z,44.57
2019-02-12T06:35:36.658Z,45.22
2019-02-12T06:38:02.944Z,44.76
2019-02-12T06:40:29.191Z,44.50
2019-02-12T06:42:55.414Z,43.89
2019-02-12T06:45:21.684Z,44.17
2019-02-12T06:47:47.950Z,41.95
2019-02-12T06:50:14.195Z,42.83
2019-02-12T06:52:40.447Z,42.37
2019-02-12T06:55:10.094Z,41.99
2019-02-12T06:57:36.885Z,40.85
2019-02-12T07:00:06.856Z,40.32
2019-02-12T07:03:11.660Z,38.71
2019-02-12T07:05:47.403Z,38.50
2019-02-12T07:08:38.482Z,35.85
2019-02-12T07:11:17.209Z,34.84
2019-02-12T07:14:06.565Z,37.38
2019-02-12T07:16:52.992Z,36.70
2019-02-12T07:19:56.427Z,35.93
2019-02-12T07:22:29.114Z,34.50
2019-02-12T07:25:01.686Z,36.46
2019-02-12T07:27:37.759Z,34.81
2019-02-12T07:30:26.210Z,35.90
2019-02-12T07:33:17.289Z,34.03
2019-02-12T07:36:22.199Z,35.70
2019-02-12T07:39:17.886Z,35.14
2019-02-12T07:41:47.845Z,33.72
2019-02-12T07:44:17.601Z,35.08
2019-02-12T07:47:05.666Z,33.85
2019-02-12T07:49:35.431Z,33.42
2019-02-12T07:52:11.283Z,34.54
2019-02-12T07:54:56.323Z,36.66
2019-02-12T07:57:44.345Z,35.92
2019-02-12T08:00:17.114Z,36.66
2019-02-12T08:03:05.001Z,34.69
2019-02-12T08:05:37.813Z,32.84
2019-02-12T08:08:32.318Z,34.29
2019-02-12T08:11:07.887Z,33.23
2019-02-12T08:13:54.397Z,31.87
2019-02-12T08:16:24.165Z,33.14
2019-02-12T08:19:27.647Z,33.40
2019-02-12T08:22:06.375Z,32.05
2019-02-12T08:25:09.667Z,33.33
2019-02-12T08:28:06.434Z,34.24
2019-02-12T08:30:42.002Z,34.19
2019-02-12T08:33:20.875Z,33.20
2019-02-12T08:35:57.203Z,33.84
2019-02-12T08:38:45.923Z,34.33
2019-02-12T08:41:41.533Z,33.86
2019-02-12T08:44:29.328Z,33.25
2019-02-12T08:46:59.126Z,34.40
2019-02-12T08:49:50.341Z,33.67
2019-02-12T08:52:46.082Z,33.43
2019-02-12T08:55:41.655Z,35.32
2019-02-12T08:58:11.461Z,35.82
2019-02-12T09:00:53.128Z,35.94
2019-02-12T09:03:28.747Z,35.29
2019-02-12T09:06:10.508Z,36.76
2019-02-12T09:09:01.790Z,36.03
2019-02-12T09:11:46.313Z,35.27
2019-02-12T09:14:16.114Z,34.69
2019-02-12T09:16:51.659Z,34.37
2019-02-12T09:19:27.533Z,33.60
2019-02-12T09:22:29.160Z,33.78
2019-02-12T09:25:14.164Z,35.59
2019-02-12T09:28:00.663Z,35.69
2019-02-12T09:30:45.523Z,36.49
2019-02-12T09:33:27.027Z,37.08
2019-02-12T09:35:59.735Z,35.42
2019-02-12T09:38:41.379Z,35.93
2019-02-12T09:41:17.249Z,35.37
2019-02-12T09:44:06.602Z,34.24
2019-02-12T09:46:42.392Z,35.88
2019-02-12T09:49:21.066Z,34.89
2019-02-12T09:51:56.619Z,34.72
2019-02-12T09:54:29.539Z,34.66
2019-02-12T09:57:14.676Z,35.37
2019-02-12T09:59:59.564Z,34.99
2019-02-12T10:02:58.470Z,35.11
2019-02-12T10:05:40.327Z,34.31
2019-02-12T10:08:41.384Z,35.21
2019-02-12T10:11:11.254Z,35.90
2019-02-12T10:13:52.973Z,34.94
2019-02-12T10:16:34.988Z,36.25
2019-02-12T10:19:16.637Z,36.57
2019-02-12T10:22:16.288Z,36.66
2019-02-12T10:24:55.046Z,36.88
2019-02-12T10:27:56.837Z,36.11
2019-02-12T10:30:35.687Z,35.46
2019-02-12T10:33:01.861Z,34.50
2019-02-12T10:35:28.142Z,33.88
2019-02-12T10:37:54.444Z,37.01
2019-02-12T10:40:20.616Z,36.22
2019-02-12T10:42:46.768Z,36.01
2019-02-12T10:45:13.060Z,37.46
2019-02-12T10:47:39.223Z,35.36
2019-02-12T10:50:07.184Z,35.51
2019-02-12T10:52:33.487Z,35.81
2019-02-12T10:54:59.751Z,34.86
2019-02-12T10:57:26.021Z,36.03
2019-02-12T10:59:52.212Z,35.36
2019-02-12T11:02:20.287Z,37.10
2019-02-12T11:04:46.452Z,36.03
2019-02-12T11:07:12.634Z,34.51
2019-02-12T11:09:38.925Z,33.54
2019-02-12T11:12:05.188Z,35.87
2019-02-12T11:14:31.381Z,37.26
2019-02-12T11:16:57.657Z,34.41
2019-02-12T11:19:23.919Z,34.29
2019-02-12T11:21:50.265Z,37.48
2019-02-12T11:24:16.522Z,38.58
2019-02-12T11:26:42.716Z,36.98
2019-02-12T11:29:09.020Z,37.71
2019-02-12T11:31:35.323Z,39.44
2019-02-12T11:34:01.476Z,40.05
2019-02-12T11:36:27.669Z,37.91
2019-02-12T11:38:53.935Z,39.78
2019-02-12T11:41:20.102Z,37.56
2019-02-12T11:43:46.325Z,36.58
2019-02-12T11:46:12.584Z,36.97
2019-02-12T11:48:38.874Z,37.64
2019-02-12T11:51:05.056Z,37.85
2019-02-12T11:53:31.323Z,38.32
2019-02-12T11:55:57.602Z,42.18
2019-02-12T11:58:23.815Z,41.86
2019-02-12T12:00:51.868Z,39.67
2019-02-12T12:03:18.127Z,40.11
2019-02-12T12:05:44.450Z,40.34
2019-02-12T12:08:10.609Z,41.08
2019-02-12T12:10:36.881Z,40.43
2019-02-12T12:13:03.184Z,38.32
2019-02-12T12:15:29.358Z,40.99
2019-02-12T12:17:55.533Z,41.85
2019-02-12T12:20:21.834Z,42.21
2019-02-12T12:22:47.991Z,43.00
2019-02-12T12:25:14.158Z,41.31
2019-02-12T12:27:40.504Z,41.39
2019-02-12T12:30:09.499Z,41.89
2019-02-12T12:32:36.729Z,39.70
2019-02-12T12:35:04.836Z,42.90
2019-02-12T12:37:30.998Z,37.27
2019-02-12T12:39:57.521Z,39.43
2019-02-12T12:42:23.707Z,39.48
2019-02-12T12:44:49.996Z,40.79
2019-02-12T12:47:16.288Z,41.14
2019-02-12T12:49:42.623Z,39.21
2019-02-12T12:52:08.899Z,39.94
2019-02-12T12:54:35.190Z,39.57
2019-02-12T12:57:02.539Z,38.90
2019-02-12T12:59:28.836Z,38.90
2019-02-12T13:01:55.134Z,40.58
2019-02-12T13:04:21.469Z,40.44
2019-02-12T13:06:47.771Z,41.86
2019-02-12T13:09:13.979Z,39.08
2019-02-12T13:11:42.688Z,37.98
2019-02-12T13:14:08.967Z,40.22
2019-02-12T13:16:35.255Z,41.26
2019-02-12T13:19:01.570Z,40.47
2019-02-12T13:21:27.859Z,41.69
2019-02-12T13:23:54.169Z,39.08
2019-02-12T13:26:20.479Z,40.00
2019-02-12T13:28:46.780Z,39.64
2019-02-12T13:31:13.074Z,39.58
2019-02-12T13:33:39.398Z,40.08
2019-02-12T13:36:05.707Z,39.76
2019-02-12T13:38:31.994Z,38.17
2019-02-12T13:40:58.366Z,40.32
2019-02-12T13:43:24.647Z,37.98
2019-02-12T13:45:50.937Z,36.55
2019-02-12T13:48:17.254Z,41.05
2019-02-12T13:50:43.535Z,38.63
2019-02-12T13:53:09.830Z,38.51
2019-02-12T13:55:36.150Z,37.52
2019-02-12T13:58:02.433Z,39.77
2019-02-12T14:00:28.734Z,40.15
2019-02-12T14:02:55.044Z,38.98
2019-02-12T14:05:22.686Z,38.95
2019-02-12T14:07:49.025Z,40.74
2019-02-12T14:10:15.357Z,41.88
2019-02-12T14:12:41.646Z,42.21
2019-02-12T14:15:11.132Z,41.67
2019-02-12T14:17:37.461Z,40.72
2019-02-12T14:20:07.369Z,38.94
2019-02-12T14:22:33.654Z,38.75
2019-02-12T14:24:59.983Z,41.00
2019-02-12T14:27:26.269Z,42.45
2019-02-12T14:29:52.470Z,41.90
2019-02-12T14:32:18.685Z,43.79
2019-02-12T14:34:45.031Z,43.50
2019-02-12T14:37:11.316Z,41.66
2019-02-12T14:39:37.629Z,40.99
2019-02-12T14:42:03.917Z,40.94
2019-02-12T14:44:30.203Z,41.55
2019-02-12T14:46:56.432Z,42.20
2019-02-12T14:49:22.743Z,41.21
2019-02-12T14:51:49.030Z,42.76
2019-02-12T14:54:15.396Z,43.21
2019-02-12T14:56:41.683Z,43.29
2019-02-12T14:59:13.802Z,42.60
2019-02-12T15:01:40.123Z,45.15
2019-02-12T15:04:06.410Z,44.10
2019-02-12T15:06:32.695Z,44.01
2019-02-12T15:08:59.020Z,44.61
2019-02-12T15:11:25.315Z,44.75
2019-02-12T15:13:51.636Z,45.44
2019-02-12T15:16:17.850Z,44.21
2019-02-12T15:18:44.146Z,44.23
2019-02-12T15:21:10.340Z,46.14
2019-02-12T15:23:36.663Z,47.44
2019-02-12T15:26:02.964Z,47.52
2019-02-12T15:28:29.147Z,45.41
2019-02-12T15:30:55.474Z,45.01
2019-02-12T15:33:21.765Z,45.39
2019-02-12T15:35:48.193Z,44.41
2019-02-12T15:38:14.424Z,45.39
2019-02-12T15:40:41.087Z,47.36
2019-02-12T15:43:07.288Z,47.09
2019-02-12T15:45:33.621Z,46.37
2019-02-12T15:47:59.910Z,47.30
2019-02-12T15:50:26.207Z,46.88
2019-02-12T15:52:52.433Z,46.15
2019-02-12T15:55:18.755Z,46.33
2019-02-12T15:57:45.934Z,44.95
2019-02-12T16:00:16.094Z,48.04
2019-02-12T16:02:43.464Z,47.52
2019-02-12T16:05:12.358Z,46.93
2019-02-12T16:07:38.801Z,48.67
2019-02-12T16:10:11.007Z,46.87
2019-02-12T16:12:37.306Z,47.75
2019-02-12T16:15:09.731Z,46.43
2019-02-12T16:17:37.377Z,45.94
2019-02-12T16:20:06.011Z,46.68
2019-02-12T16:22:32.336Z,46.08
2019-02-12T16:24:58.631Z,48.00
2019-02-12T16:27:25.108Z,47.19
2019-02-12T16:29:51.424Z,47.37
2019-02-12T16:32:17.710Z,48.64
2019-02-12T16:34:43.999Z,47.73
2019-02-12T16:37:10.402Z,47.93
2019-02-12T16:39:36.690Z,48.31
2019-02-12T16:42:02.991Z,46.62
2019-02-12T16:44:29.308Z,48.25
2019-02-12T16:46:55.634Z,46.11
2019-02-12T16:49:21.914Z,48.39
2019-02-12T16:51:48.243Z,49.34
2019-02-12T16:54:14.548Z,47.51
2019-02-12T16:56:40.736Z,45.74
2019-02-12T16:59:07.056Z,46.23
2019-02-12T17:01:33.241Z,45.08
2019-02-12T17:03:59.532Z,44.37
2019-02-12T17:06:25.860Z,46.18
2019-02-12T17:08:52.159Z,46.42
2019-02-12T17:11:18.353Z,46.06
2019-02-12T17:13:44.667Z,44.30
2019-02-12T17:16:10.955Z,47.86
2019-02-12T17:18:37.240Z,44.21
2019-02-12T17:21:03.571Z,46.16
2019-02-12T17:23:29.803Z,47.34
2019-02-12T17:25:56.117Z,46.13
2019-02-12T17:28:22.442Z,46.56
2019-02-12T17:30:48.733Z,44.33
2019-02-12T17:33:15.018Z,45.58
2019-02-12T17:35:41.341Z,44.96
2019-02-12T17:38:08.500Z,44.47
2019-02-12T17:40:34.790Z,44.37
2019-02-12T17:43:01.110Z,46.46
2019-02-12T17:45:27.588Z,43.47
2019-02-12T17:47:53.967Z,45.29
2019-02-12T17:50:20.297Z,44.89
2019-02-12T17:52:46.589Z,45.00
2019-02-12T17:55:12.874Z,44.08
2019-02-12T17:57:39.198Z,43.78
2019-02-12T18:00:16.664Z,46.54
2019-02-12T18:02:42.985Z,44.22
2019-02-12T18:05:09.276Z,47.55
2019-02-12T18:07:35.564Z,44.67
2019-02-12T18:10:01.880Z,45.44
2019-02-12T18:12:28.188Z,46.04
2019-02-12T18:14:54.489Z,46.73
2019-02-12T18:17:20.811Z,45.32
2019-02-12T18:19:47.106Z,45.14
2019-02-12T18:22:13.386Z,44.31
2019-02-12T18:24:39.725Z,44.55
2019-02-12T18:27:06.021Z,45.21
2019-02-12T18:29:32.658Z,47.04
2019-02-12T18:31:58.991Z,44.89
2019-02-12T18:34:25.279Z,45.06
2019-02-12T18:36:51.567Z,45.10
2019-02-12T18:39:18.011Z,43.32
2019-02-12T18:41:44.783Z,46.80
2019-02-12T18:44:11.038Z,46.56
2019-02-12T18:46:37.354Z,45.74
2019-02-12T18:49:03.640Z,45.57
2019-02-12T18:51:29.939Z,43.01
2019-02-12T18:53:56.249Z,44.68
2019-02-12T18:56:22.548Z,45.62
2019-02-12T18:58:48.842Z,43.62
2019-02-12T19:01:15.156Z,45.16
2019-02-12T19:03:41.449Z,43.18
2019-02-12T19:06:07.735Z,44.70
2019-02-12T19:08:34.045Z,46.12
2019-02-12T19:11:00.340Z,43.80
2019-02-12T19:13:26.661Z,45.77
2019-02-12T19:15:53.039Z,44.78
2019-02-12T19:18:21.940Z,45.76
2019-02-12T19:20:48.225Z,42.52
2019-02-12T19:23:14.544Z,43.05
2019-02-12T19:25:40.914Z,45.77
2019-02-12T19:28:07.208Z,44.96
2019-02-12T19:30:33.534Z,46.74
2019-02-12T19:32:59.829Z,46.26
2019-02-12T19:35:26.113Z,45.69
2019-02-12T19:37:52.433Z,43.97
2019-02-12T19:40:18.794Z,44.37
2019-02-12T19:42:45.146Z,45.01
2019-02-12T19:45:14.152Z,45.13
2019-02-12T19:47:40.615Z,43.59
2019-02-12T19:50:08.609Z,45.58
2019-02-12T19:52:34.939Z,46.33
2019-02-12T19:55:01.227Z,45.81
2019-02-12T19:57:27.896Z,45.96
2019-02-12T19:59:54.230Z,44.20
2019-02-12T20:02:20.524Z,44.50
2019-02-12T20:04:46.804Z,45.48
2019-02-12T20:07:13.130Z,44.89
2019-02-12T20:09:39.422Z,45.70
2019-02-12T20:12:05.721Z,48.73
2019-02-12T20:14:32.060Z,45.14
2019-02-12T20:16:58.356Z,46.62
2019-02-12T20:19:24.639Z,44.26
2019-02-12T20:21:50.866Z,45.36
2019-02-12T20:24:17.166Z,45.72
2019-02-12T20:26:43.450Z,48.20
2019-02-12T20:29:09.681Z,46.36
2019-02-12T20:31:35.960Z,44.63
2019-02-12T20:34:02.157Z,46.44
2019-02-12T20:36:28.483Z,46.02
2019-02-12T20:38:54.780Z,44.76
2019-02-12T20:41:21.034Z,47.08
2019-02-12T20:43:47.252Z,45.68
2019-02-12T20:46:13.544Z,47.46
2019-02-12T20:48:39.849Z,47.02
2019-02-12T20:51:06.182Z,48.38
2019-02-12T20:53:32.479Z,44.88
2019-02-12T20:55:58.758Z,42.83
2019-02-12T20:58:25.088Z,43.77
2019-02-12T21:00:51.385Z,45.87
2019-02-12T21:03:17.678Z,46.16
2019-02-12T21:05:43.908Z,45.01
2019-02-12T21:08:10.198Z,45.59
2019-02-12T21:10:36.485Z,46.30
2019-02-12T21:13:02.805Z,45.75
2019-02-12T21:15:29.805Z,45.67
2019-02-12T21:17:55.995Z,47.01
2019-02-12T21:20:22.327Z,44.81
2019-02-12T21:22:48.610Z,45.91
2019-02-12T21:25:14.917Z,46.12
2019-02-12T21:27:41.123Z,47.58
2019-02-12T21:30:16.806Z,48.11
2019-02-12T21:32:43.027Z,47.60
2019-02-12T21:35:11.503Z,45.97
2019-02-12T21:37:37.781Z,47.61
2019-02-12T21:40:19.468Z,47.40
2019-02-12T21:42:46.729Z,46.32
2019-02-12T21:45:12.992Z,47.13
2019-02-12T21:47:39.201Z,48.79
2019-02-12T21:50:09.999Z,44.98
2019-02-12T21:52:36.161Z,46.26
2019-02-12T21:55:04.558Z,46.78
2019-02-12T21:57:32.091Z,46.92
2019-02-12T21:59:58.486Z,46.99
2019-02-12T22:02:24.683Z,46.36
2019-02-12T22:04:50.851Z,46.35
2019-02-12T22:07:17.115Z,46.89
2019-02-12T22:09:43.323Z,47.88
2019-02-12T22:12:09.584Z,46.72
2019-02-12T22:14:35.631Z,45.66
2019-02-12T22:17:02.786Z,47.42
2019-02-12T22:19:28.951Z,49.18
2019-02-12T22:21:55.117Z,50.33
2019-02-12T22:24:21.305Z,47.70
2019-02-12T22:26:47.458Z,49.29
2019-02-12T22:29:13.615Z,45.96
2019-02-12T22:31:39.803Z,44.00
2019-02-12T22:34:06.066Z,48.58
2019-02-12T22:36:32.222Z,47.01
2019-02-12T22:38:58.421Z,46.93
2019-02-12T22:41:24.579Z,44.10
2019-02-12T22:43:50.779Z,46.53
2019-02-12T22:46:16.972Z,48.22
2019-02-12T22:48:43.231Z,47.39
2019-02-12T22:51:09.393Z,45.75
2019-02-12T22:53:35.478Z,47.56
2019-02-12T22:56:01.770Z,44.76
2019-02-12T22:58:27.926Z,44.10
2019-02-12T23:00:57.358Z,48.43
2019-02-12T23:03:24.253Z,45.15
2019-02-12T23:05:50.428Z,46.81
2019-02-12T23:08:16.748Z,47.17
2019-02-12T23:10:42.938Z,46.84
2019-02-12T23:13:09.238Z,47.58
2019-02-12T23:15:35.661Z,47.58
2019-02-12T23:18:01.839Z,49.44
2019-02-12T23:20:28.025Z,49.91
2019-02-12T23:22:54.336Z,49.97
2019-02-12T23:25:20.641Z,49.42
2019-02-12T23:27:46.934Z,50.22
2019-02-12T23:30:13.262Z,49.93
2019-02-12T23:32:39.544Z,48.98
2019-02-12T23:35:05.833Z,49.77
2019-02-12T23:37:32.162Z,50.46
2019-02-12T23:39:58.459Z,48.37
2019-02-12T23:42:24.752Z,50.50
2019-02-12T23:44:51.125Z,50.37
2019-02-12T23:47:17.414Z,48.95
2019-02-12T23:49:43.697Z,50.58
2019-02-12T23:52:10.032Z,50.64
2019-02-12T23:54:36.218Z,47.75
2019-02-12T23:57:02.512Z,49.21
2019-02-12T23:59:28.833Z,48.42
